Time;durP1;ratioP1;P1;durP2;ratioP2;P2;SDS_P1;SDS_P2;PMS_P1;PMS_P2;Temp;Humidity;BMP_temperature;BMP_pressure;BME280_temperature;BME280_humidity;BME280_pressure;Samples;Min_cycle;Max_cycle;Signal;HPM_P1;HPM_P2
2022/09/01 00:01:13;;;;;;;5.67;2.33;;;18.40;99.90;;;;;;6043650;23;20658;-61
2022/09/01 00:03:45;;;;;;;2.50;2.20;;;18.40;99.90;;;;;;6068842;23;20221;-61
2022/09/01 00:06:14;;;;;;;3.17;2.23;;;18.40;99.90;;;;;;6043381;23;20159;-60
2022/09/01 00:08:42;;;;;;;2.50;2.30;;;18.40;99.90;;;;;;6043352;23;20168;-61
2022/09/01 00:11:11;;;;;;;2.20;2.10;;;18.30;99.90;;;;;;6068641;23;20196;-61
2022/09/01 00:13:39;;;;;;;2.30;2.20;;;18.30;99.90;;;;;;6043520;23;20164;-61
2022/09/01 00:16:08;;;;;;;2.43;2.33;;;18.20;99.90;;;;;;6043119;23;20259;-60
2022/09/01 00:18:37;;;;;;;4.97;2.37;;;18.20;99.90;;;;;;6068544;23;20219;-61
2022/09/01 00:21:06;;;;;;;2.40;1.97;;;18.10;99.90;;;;;;6068550;23;20688;-60
2022/09/01 00:23:35;;;;;;;7.90;2.63;;;18.10;99.90;;;;;;6068510;23;20177;-60
2022/09/01 00:26:05;;;;;;;2.20;2.10;;;18.00;99.90;;;;;;6042983;23;20204;-61
2022/09/01 00:28:34;;;;;;;14.47;2.40;;;18.00;99.90;;;;;;6043164;23;20219;-61
2022/09/01 00:31:03;;;;;;;2.37;2.20;;;18.00;99.90;;;;;;6068950;23;20191;-61
2022/09/01 00:33:32;;;;;;;2.27;2.17;;;17.90;99.90;;;;;;6068576;23;20196;-60
2022/09/01 00:36:01;;;;;;;3.17;2.30;;;17.90;99.90;;;;;;6043029;23;20182;-61
2022/09/01 00:38:31;;;;;;;3.07;2.17;;;17.90;99.90;;;;;;6068252;23;20271;-61
2022/09/01 00:41:00;;;;;;;3.27;2.17;;;17.90;99.90;;;;;;6068263;23;20198;-60
2022/09/01 00:43:39;;;;;;;2.47;2.27;;;17.80;99.90;;;;;;6068340;23;20248;-61
2022/09/01 00:46:11;;;;;;;2.40;2.27;;;17.80;99.90;;;;;;6068649;23;20666;-61
2022/09/01 00:48:43;;;;;;;2.63;2.33;;;17.80;99.90;;;;;;6068806;23;20593;-61
2022/09/01 00:51:13;;;;;;;6.80;2.23;;;17.80;99.90;;;;;;6068849;23;20620;-62
2022/09/01 00:53:44;;;;;;;4.63;2.33;;;17.90;99.90;;;;;;6068475;23;20198;-61
2022/09/01 00:56:14;;;;;;;2.23;2.07;;;17.90;99.90;;;;;;6068039;23;20534;-61
2022/09/01 00:58:43;;;;;;;5.23;2.27;;;17.90;99.90;;;;;;6068686;23;20218;-61
2022/09/01 01:05:53;;;;;;;2.33;2.10;;;17.90;99.90;;;;;;6068617;23;20503;-61
2022/09/01 01:08:30;;;;;;;2.27;2.07;;;17.90;99.90;;;;;;6043212;23;20685;-61
2022/09/01 01:11:01;;;;;;;1.87;1.73;;;17.90;99.90;;;;;;6068543;23;20154;-61
2022/09/01 01:13:34;;;;;;;2.27;2.17;;;17.90;99.90;;;;;;6043435;23;20167;-61
2022/09/01 01:16:14;;;;;;;4.70;2.20;;;17.90;99.90;;;;;;6068649;23;20190;-61
2022/09/01 01:18:43;;;;;;;3.90;2.00;;;17.80;99.90;;;;;;6068261;23;20188;-61
2022/09/01 01:24:10;;;;;;;2.10;2.00;;;17.80;99.90;;;;;;6069086;23;20166;-61
2022/09/01 01:26:41;;;;;;;2.50;2.30;;;17.80;99.90;;;;;;6042573;23;20193;-61
2022/09/01 01:29:10;;;;;;;1.83;1.73;;;17.70;99.90;;;;;;6068208;23;20471;-61
2022/09/01 01:31:38;;;;;;;1.90;1.80;;;17.70;99.90;;;;;;6042996;23;20251;-61
2022/09/01 01:34:07;;;;;;;2.33;2.10;;;17.70;99.90;;;;;;6068433;23;20606;-61
2022/09/01 01:36:40;;;;;;;2.10;1.90;;;17.60;99.90;;;;;;6068434;23;20175;-61
2022/09/01 01:39:12;;;;;;;2.57;2.00;;;17.60;99.90;;;;;;6068114;23;20573;-61
2022/09/01 01:41:47;;;;;;;5.07;2.10;;;17.50;99.90;;;;;;6068002;23;20204;-61
2022/09/01 01:44:18;;;;;;;1.87;1.70;;;17.40;99.90;;;;;;6042635;23;20168;-61
2022/09/01 01:46:50;;;;;;;2.57;1.90;;;17.40;99.90;;;;;;6068289;23;20535;-61
2022/09/01 01:49:21;;;;;;;1.97;1.87;;;17.30;99.90;;;;;;6068652;23;20172;-61
2022/09/01 01:51:55;;;;;;;1.97;1.97;;;17.30;99.90;;;;;;6068256;23;20173;-61
2022/09/01 01:54:25;;;;;;;8.57;1.90;;;17.20;99.90;;;;;;6043127;23;20191;-61
2022/09/01 01:56:57;;;;;;;2.00;1.90;;;17.20;99.90;;;;;;6068374;23;20168;-61
2022/09/01 01:59:28;;;;;;;1.63;1.63;;;17.20;99.90;;;;;;6067902;23;20263;-61
2022/09/01 02:06:44;;;;;;;1.90;1.80;;;17.10;99.90;;;;;;6068650;23;20141;-61
2022/09/01 02:09:15;;;;;;;1.83;1.73;;;17.10;99.90;;;;;;6069940;23;20211;-61
2022/09/01 02:11:44;;;;;;;2.50;1.70;;;17.10;99.90;;;;;;6044715;23;20158;-61
2022/09/01 02:14:14;;;;;;;1.80;1.70;;;17.10;99.90;;;;;;6043962;23;20165;-61
2022/09/01 02:16:43;;;;;;;2.67;1.73;;;17.10;99.90;;;;;;6069499;23;20247;-61
2022/09/01 02:19:11;;;;;;;1.70;1.70;;;17.10;99.90;;;;;;6069742;23;20197;-61
2022/09/01 02:21:43;;;;;;;2.73;1.80;;;17.10;99.90;;;;;;6069556;23;20192;-62
2022/09/01 02:24:14;;;;;;;3.60;2.00;;;17.10;99.90;;;;;;6069671;23;20168;-61
2022/09/01 02:26:47;;;;;;;3.10;1.90;;;17.10;99.90;;;;;;6069430;23;20208;-61
2022/09/01 02:29:20;;;;;;;2.10;2.00;;;17.10;99.90;;;;;;6068178;23;20545;-61
2022/09/01 02:31:52;;;;;;;3.43;2.00;;;17.10;99.90;;;;;;6068492;23;20577;-61
2022/09/01 02:34:22;;;;;;;1.90;1.80;;;17.20;99.90;;;;;;6069588;23;20474;-61
2022/09/01 02:36:54;;;;;;;3.43;2.00;;;17.20;99.90;;;;;;6069715;23;20184;-61
2022/09/01 02:39:25;;;;;;;2.93;1.90;;;17.20;99.90;;;;;;6044141;23;20189;-61
2022/09/01 02:41:53;;;;;;;5.27;2.20;;;17.20;99.90;;;;;;6069589;23;20516;-61
2022/09/01 02:44:23;;;;;;;2.60;1.87;;;17.20;99.90;;;;;;6044226;23;20205;-61
2022/09/01 02:46:52;;;;;;;4.97;1.90;;;17.30;99.90;;;;;;6069591;23;20289;-61
2022/09/01 02:49:24;;;;;;;2.40;2.10;;;17.30;99.90;;;;;;6069701;23;20240;-61
2022/09/01 02:52:00;;;;;;;6.07;2.10;;;17.30;99.90;;;;;;6069554;23;20173;-61
2022/09/01 02:54:30;;;;;;;3.33;1.93;;;17.30;99.90;;;;;;6069407;23;20195;-61
2022/09/01 02:56:59;;;;;;;2.00;1.70;;;17.30;99.90;;;;;;6069796;23;20205;-61
2022/09/01 02:59:30;;;;;;;1.87;1.77;;;17.30;99.90;;;;;;6069077;23;20219;-61
2022/09/01 03:01:59;;;;;;;2.80;2.30;;;17.30;99.90;;;;;;6069271;23;20303;-60
2022/09/01 03:04:28;;;;;;;1.93;1.83;;;17.30;99.90;;;;;;6069345;23;20172;-61
2022/09/01 03:06:58;;;;;;;4.27;2.03;;;17.40;99.90;;;;;;6069381;23;20235;-60
2022/09/01 03:09:26;;;;;;;2.77;1.90;;;17.40;99.90;;;;;;6069815;23;20171;-61
2022/09/01 03:11:55;;;;;;;1.97;1.87;;;17.40;99.90;;;;;;6069191;23;20199;-60
2022/09/01 03:14:24;;;;;;;1.97;1.87;;;17.40;99.90;;;;;;6069201;23;20175;-61
2022/09/01 03:16:54;;;;;;;2.13;2.03;;;17.30;99.90;;;;;;6069476;23;20616;-61
2022/09/01 03:19:22;;;;;;;3.77;2.10;;;17.30;99.90;;;;;;6043456;23;20195;-61
2022/09/01 03:21:51;;;;;;;4.53;2.17;;;17.30;99.90;;;;;;6068830;23;20191;-61
2022/09/01 03:24:20;;;;;;;5.00;2.30;;;17.30;99.90;;;;;;6069501;23;20197;-61
2022/09/01 03:26:51;;;;;;;2.43;2.07;;;17.30;99.90;;;;;;6068799;23;20196;-60
2022/09/01 03:29:19;;;;;;;3.13;2.20;;;17.30;99.90;;;;;;6069190;23;20510;-61
2022/09/01 03:31:48;;;;;;;5.20;2.30;;;17.20;99.90;;;;;;6068892;23;20248;-60
2022/09/01 03:34:22;;;;;;;2.10;2.00;;;17.20;99.90;;;;;;6068940;23;20537;-60
2022/09/01 03:36:50;;;;;;;2.40;2.20;;;17.20;99.90;;;;;;6068797;23;20167;-60
2022/09/01 03:39:20;;;;;;;8.33;2.10;;;17.20;99.90;;;;;;6069106;23;20706;-61
2022/09/01 03:41:48;;;;;;;6.57;2.20;;;17.10;99.90;;;;;;6069014;23;20233;-60
2022/09/01 03:44:16;;;;;;;5.30;2.20;;;17.10;99.90;;;;;;6069131;23;20494;-61
2022/09/01 03:46:45;;;;;;;11.40;2.20;;;17.00;99.90;;;;;;6068877;23;20173;-61
2022/09/01 03:49:14;;;;;;;2.20;2.00;;;16.90;99.90;;;;;;6068862;23;20535;-60
2022/09/01 03:51:45;;;;;;;2.10;2.00;;;16.90;99.90;;;;;;6068690;23;20241;-60
2022/09/01 03:54:13;;;;;;;4.20;2.20;;;16.80;99.90;;;;;;6068605;23;20247;-60
2022/09/01 03:56:42;;;;;;;3.37;2.13;;;16.70;99.90;;;;;;6068726;23;20244;-60
2022/09/01 03:59:15;;;;;;;2.47;2.27;;;16.70;99.90;;;;;;6043378;23;20507;-60
2022/09/01 04:01:45;;;;;;;3.37;2.40;;;16.60;99.90;;;;;;6068919;23;20220;-61
2022/09/01 04:04:51;;;;;;;4.07;2.20;;;16.50;99.90;;;;;;6068708;23;20226;-61
2022/09/01 04:07:22;;;;;;;5.60;2.20;;;16.40;99.90;;;;;;6043071;23;20499;-61
2022/09/01 04:09:51;;;;;;;3.13;2.23;;;16.40;99.90;;;;;;6043247;23;20164;-61
2022/09/01 04:12:19;;;;;;;4.60;2.43;;;16.40;99.90;;;;;;6068597;23;20201;-60
2022/09/01 04:14:51;;;;;;;3.33;2.50;;;16.30;99.90;;;;;;6068379;23;20612;-61
2022/09/01 04:20:08;;;;;;;2.40;2.30;;;16.20;99.90;;;;;;6042931;23;20283;-60
2022/09/01 04:22:37;;;;;;;2.97;2.40;;;16.10;99.90;;;;;;6043420;23;20210;-60
2022/09/01 04:25:07;;;;;;;4.30;2.40;;;16.10;99.90;;;;;;6068124;23;20247;-60
2022/09/01 04:27:39;;;;;;;3.30;2.30;;;16.10;99.90;;;;;;6068468;23;20164;-60
2022/09/01 04:30:10;;;;;;;6.10;2.63;;;16.00;99.90;;;;;;6068134;23;20244;-60
2022/09/01 04:32:39;;;;;;;3.53;2.50;;;15.90;99.90;;;;;;6068625;23;20243;-60
2022/09/01 04:35:10;;;;;;;3.93;2.43;;;15.90;99.90;;;;;;6042953;23;20233;-60
2022/09/01 04:37:40;;;;;;;3.67;2.70;;;15.90;99.90;;;;;;6042897;23;20170;-60
2022/09/01 04:40:09;;;;;;;4.70;2.50;;;15.90;99.90;;;;;;6068106;23;20188;-60
2022/09/01 04:42:38;;;;;;;4.03;2.90;;;15.80;99.90;;;;;;6068433;23;20481;-60
2022/09/01 04:45:09;;;;;;;2.80;2.60;;;15.80;99.90;;;;;;6068347;23;20543;-60
2022/09/01 04:47:40;;;;;;;3.13;2.80;;;15.70;99.90;;;;;;6068072;23;20164;-60
2022/09/01 04:50:13;;;;;;;8.00;3.20;;;15.70;99.90;;;;;;6067618;23;20160;-60
2022/09/01 04:52:44;;;;;;;8.27;3.00;;;15.60;99.90;;;;;;6067799;23;20164;-60
2022/09/01 04:55:16;;;;;;;3.33;2.77;;;15.50;99.90;;;;;;6068442;23;20172;-59
2022/09/01 04:57:48;;;;;;;3.57;2.87;;;15.40;99.90;;;;;;6068535;23;20467;-60
2022/09/01 05:00:22;;;;;;;5.07;2.47;;;15.30;99.90;;;;;;6043169;23;20193;-59
2022/09/01 05:02:52;;;;;;;5.00;2.60;;;15.30;99.90;;;;;;6043199;23;20224;-59
2022/09/01 05:05:21;;;;;;;3.13;2.80;;;15.20;99.90;;;;;;6068196;23;20175;-59
2022/09/01 05:07:51;;;;;;;3.03;2.40;;;15.10;99.90;;;;;;6068802;23;20610;-59
2022/09/01 05:10:27;;;;;;;3.93;2.60;;;15.10;99.90;;;;;;6042979;23;20170;-60
2022/09/01 05:12:56;;;;;;;3.33;2.67;;;15.10;99.90;;;;;;6043059;23;20156;-60
2022/09/01 05:15:25;;;;;;;3.40;3.07;;;15.00;99.90;;;;;;6068851;23;20179;-59
2022/09/01 05:17:54;;;;;;;5.93;2.70;;;15.00;99.90;;;;;;6068182;23;20244;-59
2022/09/01 05:20:23;;;;;;;3.20;2.90;;;14.90;99.90;;;;;;6068174;23;20197;-60
2022/09/01 05:22:56;;;;;;;2.70;2.57;;;14.90;99.90;;;;;;6042675;23;20202;-59
2022/09/01 05:25:26;;;;;;;2.77;2.57;;;14.90;99.90;;;;;;6068136;23;20527;-60
2022/09/01 05:27:54;;;;;;;3.20;2.90;;;14.90;99.90;;;;;;6068635;23;20169;-59
2022/09/01 05:30:27;;;;;;;4.03;2.97;;;14.90;99.90;;;;;;6043421;23;20216;-59
2022/09/01 05:32:55;;;;;;;4.67;2.90;;;14.90;99.90;;;;;;6068598;23;20168;-60
2022/09/01 05:35:26;;;;;;;3.23;2.70;;;14.90;99.90;;;;;;6042691;23;20547;-60
2022/09/01 05:38:02;;;;;;;3.43;3.00;;;14.90;99.90;;;;;;6068463;23;20454;-60
2022/09/01 05:40:31;;;;;;;3.37;3.00;;;14.90;99.90;;;;;;6043162;23;20212;-60
2022/09/01 05:42:59;;;;;;;3.57;2.80;;;15.00;99.90;;;;;;6070360;23;20192;-60
2022/09/01 05:45:28;;;;;;;3.03;2.83;;;15.10;99.90;;;;;;6070088;23;20549;-60
2022/09/01 05:48:22;;;;;;;4.37;3.13;;;15.20;99.90;;;;;;6070219;23;20174;-60
2022/09/01 05:50:55;;;;;;;3.20;3.00;;;15.30;99.90;;;;;;6069498;23;20603;-60
2022/09/01 05:53:24;;;;;;;3.33;3.00;;;15.40;99.90;;;;;;6044341;23;20185;-60
2022/09/01 05:55:55;;;;;;;4.37;2.87;;;15.50;99.90;;;;;;6069551;23;20191;-60
2022/09/01 05:58:25;;;;;;;3.43;2.80;;;15.60;99.90;;;;;;6044522;23;20200;-60
2022/09/01 06:01:20;;;;;;;6.13;3.10;;;15.70;99.90;;;;;;6069828;23;20727;-60
2022/09/01 06:03:51;;;;;;;3.40;3.10;;;15.80;99.90;;;;;;6069897;23;20193;-60
2022/09/01 06:06:21;;;;;;;5.73;3.20;;;15.90;99.90;;;;;;6069865;23;20196;-60
2022/09/01 06:08:57;;;;;;;4.73;3.73;;;15.90;99.90;;;;;;6070416;23;20248;-60
2022/09/01 06:11:31;;;;;;;6.13;3.43;;;16.00;99.90;;;;;;6069868;23;20253;-60
2022/09/01 06:14:01;;;;;;;6.07;3.67;;;16.00;99.90;;;;;;6044903;23;20495;-60
2022/09/01 06:16:30;;;;;;;5.60;3.90;;;16.10;99.90;;;;;;6070223;23;20173;-60
2022/09/01 06:18:59;;;;;;;10.47;3.93;;;16.20;99.90;;;;;;6069853;23;20248;-60
2022/09/01 06:21:27;;;;;;;8.20;3.80;;;16.30;99.90;;;;;;6069580;23;20272;-60
2022/09/01 06:23:58;;;;;;;7.47;4.17;;;16.50;99.90;;;;;;6069740;23;20677;-60
2022/09/01 06:26:29;;;;;;;4.47;3.93;;;16.60;99.90;;;;;;6069712;23;20203;-60
2022/09/01 06:29:00;;;;;;;5.63;4.20;;;16.70;99.90;;;;;;6069964;23;20189;-60
2022/09/01 06:31:32;;;;;;;5.73;4.23;;;16.80;99.90;;;;;;6069470;23;20172;-60
2022/09/01 06:34:02;;;;;;;9.87;4.47;;;16.90;99.90;;;;;;6069728;23;20194;-60
2022/09/01 06:36:32;;;;;;;5.73;4.10;;;17.00;99.90;;;;;;6069551;23;20174;-60
2022/09/01 06:39:04;;;;;;;5.83;3.87;;;17.20;99.90;;;;;;6044855;23;20180;-60
2022/09/01 06:41:35;;;;;;;5.23;4.37;;;17.30;99.90;;;;;;6069784;23;20198;-61
2022/09/01 06:44:03;;;;;;;8.50;4.50;;;17.30;99.90;;;;;;6069617;23;20192;-61
2022/09/01 06:46:33;;;;;;;11.10;4.07;;;17.40;99.90;;;;;;6069735;23;20205;-61
2022/09/01 06:49:02;;;;;;;4.93;4.43;;;17.50;99.90;;;;;;6070185;23;20193;-61
2022/09/01 06:51:32;;;;;;;9.60;5.10;;;17.50;99.90;;;;;;6069760;23;20164;-61
2022/09/01 06:54:01;;;;;;;9.63;6.13;;;17.60;99.90;;;;;;6069543;23;20170;-61
2022/09/01 06:56:32;;;;;;;10.80;5.63;;;17.80;99.90;;;;;;6069528;23;20174;-61
2022/09/01 06:59:11;;;;;;;5.93;4.30;;;17.90;99.90;;;;;;6069929;23;20172;-61
2022/09/01 07:01:40;;;;;;;6.73;4.83;;;18.00;99.90;;;;;;6043988;23;20269;-61
2022/09/01 07:04:09;;;;;;;7.53;4.90;;;18.20;99.90;;;;;;6069147;23;20188;-61
2022/09/01 07:06:41;;;;;;;8.17;4.77;;;18.30;99.90;;;;;;6069325;23;20164;-61
2022/09/01 07:13:44;;;;;;;8.37;4.70;;;18.40;99.90;;;;;;6069151;23;20172;-61
2022/09/01 07:16:39;;;;;;;11.03;5.43;;;18.60;99.90;;;;;;6069181;23;20494;-61
2022/09/01 07:19:20;;;;;;;9.97;5.17;;;18.70;99.90;;;;;;6069481;23;20243;-61
2022/09/01 07:21:48;;;;;;;12.60;5.33;;;18.80;99.90;;;;;;6068884;23;20272;-61
2022/09/01 07:24:38;;;;;;;6.80;4.70;;;19.00;99.90;;;;;;6020127;23;20176;-61
2022/09/01 07:27:08;;;;;;;8.43;4.87;;;19.20;99.90;;;;;;6043581;23;20666;-61
2022/09/01 07:29:57;;;;;;;6.60;5.33;;;19.30;99.90;;;;;;6069107;23;20169;-61
2022/09/01 07:32:29;;;;;;;7.80;5.40;;;19.40;99.90;;;;;;6068999;23;20161;-61
2022/09/01 07:35:18;;;;;;;6.53;4.70;;;19.60;99.90;;;;;;6068815;23;20540;-61
2022/09/01 07:37:47;;;;;;;7.27;5.13;;;19.70;99.90;;;;;;6069226;23;20228;-61
2022/09/01 07:40:38;;;;;;;8.20;5.43;;;19.80;99.90;;;;;;6069183;23;20178;-61
2022/09/01 07:43:27;;;;;;;7.47;5.00;;;19.90;99.90;;;;;;6068765;23;20183;-61
2022/09/01 07:46:05;;;;;;;5.77;5.20;;;20.00;99.90;;;;;;6068809;23;20160;-61
2022/09/01 07:48:56;;;;;;;6.17;5.53;;;20.20;99.90;;;;;;6068557;23;20168;-60
2022/09/01 07:51:48;;;;;;;8.97;5.40;;;20.30;99.90;;;;;;6068700;23;20172;-61
2022/09/01 07:54:18;;;;;;;7.93;5.40;;;20.40;99.90;;;;;;6069163;23;20163;-61
2022/09/01 07:56:46;;;;;;;8.80;5.10;;;20.50;99.90;;;;;;6068746;23;20472;-61
2022/09/01 07:59:15;;;;;;;6.10;5.20;;;20.60;99.90;;;;;;6068951;23;20255;-61
2022/09/01 08:01:46;;;;;;;7.13;5.43;;;20.70;99.90;;;;;;6068767;23;20180;-61
2022/09/01 08:04:15;;;;;;;9.27;5.60;;;20.80;99.90;;;;;;6068692;23;20167;-61
2022/09/01 08:06:43;;;;;;;9.73;5.20;;;20.90;99.90;;;;;;6068695;23;20522;-61
2022/09/01 08:09:11;;;;;;;6.87;5.67;;;21.20;99.90;;;;;;6068628;23;20220;-61
2022/09/01 08:12:00;;;;;;;11.43;5.13;;;21.30;99.90;;;;;;6043434;23;20209;-62
2022/09/01 08:14:30;;;;;;;5.13;4.63;;;21.60;99.90;;;;;;6068919;23;20587;-61
2022/09/01 08:17:04;;;;;;;7.30;5.00;;;21.90;99.90;;;;;;6068869;23;20168;-61
2022/09/01 08:19:53;;;;;;;9.13;5.33;;;22.20;99.90;;;;;;6068418;23;20251;-61
2022/09/01 08:22:23;;;;;;;11.00;5.20;;;22.20;99.90;;;;;;6068670;23;20501;-61
2022/09/01 08:24:53;;;;;;;6.33;5.30;;;22.10;99.90;;;;;;6043529;23;20168;-61
2022/09/01 08:27:22;;;;;;;5.53;4.90;;;22.20;99.90;;;;;;6068414;23;20735;-61
2022/09/01 08:29:50;;;;;;;10.33;5.13;;;22.30;99.90;;;;;;6068381;23;20180;-61
2022/09/01 08:32:21;;;;;;;6.13;4.93;;;22.40;99.90;;;;;;6068320;23;20220;-60
2022/09/01 08:34:49;;;;;;;7.80;5.00;;;22.40;99.90;;;;;;6043302;23;20168;-61
2022/09/01 08:37:18;;;;;;;5.90;4.50;;;22.50;99.90;;;;;;6068554;23;20168;-60
2022/09/01 08:39:49;;;;;;;4.90;4.50;;;22.60;99.90;;;;;;6043193;23;20219;-60
2022/09/01 08:42:28;;;;;;;6.83;4.60;;;22.60;99.90;;;;;;6068317;23;20193;-60
2022/09/01 08:45:07;;;;;;;7.00;4.30;;;22.80;99.90;;;;;;6068164;23;20172;-61
2022/09/01 08:47:37;;;;;;;7.87;4.67;;;22.90;99.90;;;;;;6042723;23;20197;-61
2022/09/01 08:50:25;;;;;;;8.00;4.70;;;23.10;99.90;;;;;;6068443;23;20217;-61
2022/09/01 08:53:00;;;;;;;4.77;4.27;;;23.50;99.90;;;;;;6067899;23;20544;-61
2022/09/01 08:55:43;;;;;;;5.03;4.47;;;23.50;99.90;;;;;;6068464;23;20167;-61
2022/09/01 08:58:15;;;;;;;7.63;4.30;;;23.60;99.90;;;;;;6068502;23;20159;-61
2022/09/01 09:00:50;;;;;;;5.23;3.90;;;23.70;99.90;;;;;;6068044;23;20170;-61
2022/09/01 09:03:31;;;;;;;4.40;3.90;;;24.00;99.90;;;;;;6042872;23;20194;-60
2022/09/01 09:06:20;;;;;;;6.00;4.13;;;24.40;99.90;;;;;;6068338;23;20243;-61
2022/09/01 09:08:56;;;;;;;13.47;3.97;;;24.40;99.90;;;;;;6042879;23;20252;-61
2022/09/01 09:11:54;;;;;;;4.37;3.97;;;24.40;99.90;;;;;;6042931;23;20172;-61
2022/09/01 09:14:37;;;;;;;6.13;4.03;;;24.50;99.90;;;;;;6043928;23;20171;-61
2022/09/01 09:17:05;;;;;;;4.20;3.63;;;24.50;99.90;;;;;;6045462;23;20341;-61
2022/09/01 09:19:38;;;;;;;5.13;3.77;;;24.60;99.90;;;;;;6071600;23;20253;-61
2022/09/01 09:22:10;;;;;;;7.63;4.10;;;24.60;99.90;;;;;;6070932;23;20199;-61
2022/09/01 09:24:49;;;;;;;6.37;3.87;;;24.70;99.90;;;;;;6045170;23;20545;-61
2022/09/01 09:27:20;;;;;;;4.10;3.80;;;24.90;99.90;;;;;;6070681;23;20221;-61
2022/09/01 09:29:51;;;;;;;4.80;3.30;;;25.20;99.90;;;;;;6070932;23;20164;-61
2022/09/01 09:32:21;;;;;;;6.67;3.53;;;25.30;99.90;;;;;;6070106;23;20170;-61
2022/09/01 09:34:57;;;;;;;5.87;3.60;;;25.50;99.90;;;;;;6070760;23;20463;-61
2022/09/01 09:37:28;;;;;;;3.80;3.50;;;25.50;99.90;;;;;;6070252;23;20247;-61
2022/09/01 09:40:08;;;;;;;5.67;3.60;;;25.60;99.90;;;;;;6044744;23;20180;-61
2022/09/01 09:42:38;;;;;;;3.60;3.30;;;25.60;99.90;;;;;;6045108;23;20648;-62
2022/09/01 09:45:21;;;;;;;5.53;3.43;;;25.70;99.90;;;;;;6070174;23;20545;-61
2022/09/01 09:47:50;;;;;;;7.03;3.23;;;26.00;99.90;;;;;;6070020;23;20243;-62
2022/09/01 09:50:24;;;;;;;3.70;2.97;;;26.00;99.90;;;;;;6044326;23;20172;-62
2022/09/01 09:53:10;;;;;;;9.30;3.57;;;26.00;99.90;;;;;;6069966;23;20672;-62
2022/09/01 09:55:53;;;;;;;3.00;2.80;;;25.90;99.90;;;;;;6044894;23;20200;-62
2022/09/01 09:58:26;;;;;;;4.78;3.05;;;26.00;99.90;;;;;;6070551;23;20575;-61
2022/09/01 10:01:04;;;;;;;3.03;2.83;;;26.10;99.90;;;;;;6069929;23;20191;-62
2022/09/01 10:04:30;;;;;;;4.32;2.90;;;26.30;99.90;;;;;;6069848;23;20653;-62
2022/09/01 10:07:38;;;;;;;2.72;2.63;;;26.40;99.90;;;;;;6069835;23;20220;-62
2022/09/01 10:10:39;;;;;;;2.75;2.55;;;26.60;99.90;;;;;;6044705;23;20173;-62
2022/09/01 10:13:10;;;;;;;4.13;2.83;;;26.50;99.90;;;;;;6070047;23;20217;-62
2022/09/01 10:15:41;;;;;;;4.45;2.60;;;26.60;99.90;;;;;;6069711;23;20528;-62
2022/09/01 10:18:15;;;;;;;2.92;2.58;;;26.60;99.90;;;;;;6070050;23;20210;-62
2022/09/01 10:21:00;;;;;;;3.03;2.40;;;26.80;99.90;;;;;;6069634;23;20161;-62
2022/09/01 10:23:33;;;;;;;2.83;2.72;;;27.00;99.90;;;;;;6069545;23;20261;-61
2022/09/01 10:26:07;;;;;;;6.68;2.67;;;27.40;99.90;;;;;;6069379;23;20194;-61
2022/09/01 10:28:43;;;;;;;2.47;2.28;;;27.60;99.90;;;;;;6068731;23;20164;-62
2022/09/01 10:31:17;;;;;;;4.50;2.15;;;27.80;99.90;;;;;;6069282;23;20627;-61
2022/09/01 10:33:46;;;;;;;1.95;1.90;;;28.10;99.90;;;;;;6069199;23;20174;-62
2022/09/01 10:36:16;;;;;;;4.40;2.40;;;28.60;99.90;;;;;;6043797;23;20207;-61
2022/09/01 10:38:47;;;;;;;4.88;2.60;;;28.60;99.90;;;;;;6043642;23;20178;-64
2022/09/01 10:41:44;;;;;;;6.00;2.30;;;28.70;99.90;;;;;;6064082;23;20227;-64
2022/09/01 10:44:19;;;;;;;2.22;1.90;;;28.70;99.90;;;;;;6041356;23;20289;-61
2022/09/01 10:46:48;;;;;;;1.95;1.85;;;28.70;99.90;;;;;;6069417;23;20222;-61
2022/09/01 10:49:50;;;;;;;5.65;2.20;;;29.00;99.90;;;;;;6070028;23;20174;-61
2022/09/01 10:53:06;;;;;;;2.20;2.10;;;29.20;99.90;;;;;;6069607;23;20193;-61
2022/09/01 10:55:44;;;;;;;2.30;2.10;;;28.90;99.90;;;;;;5970728;23;20176;-62
2022/09/01 10:58:41;;;;;;;2.63;2.05;;;28.80;99.90;;;;;;6069291;23;20195;-62
2022/09/01 11:02:06;;;;;;;2.75;2.53;;;29.20;99.90;;;;;;6069113;23;20172;-61
2022/09/01 11:05:17;;;;;;;4.93;2.65;;;29.20;99.90;;;;;;6066322;23;20228;-62
2022/09/01 11:07:46;;;;;;;5.03;2.03;;;29.00;99.90;;;;;;6069423;23;20168;-62
2022/09/01 11:10:48;;;;;;;2.22;2.10;;;29.30;99.90;;;;;;6044232;23;20171;-62
2022/09/01 11:13:35;;;;;;;2.22;1.90;;;29.30;99.90;;;;;;6069316;23;20168;-62
2022/09/01 11:16:28;;;;;;;2.50;2.13;;;29.30;99.90;;;;;;6069556;23;20559;-61
2022/09/01 11:19:37;;;;;;;3.20;2.08;;;29.60;99.90;;;;;;6066255;23;20276;-66
2022/09/01 11:22:34;;;;;;;4.40;1.90;;;29.80;99.90;;;;;;6066223;23;20503;-64
2022/09/01 11:25:43;;;;;;;2.65;2.08;;;30.10;99.90;;;;;;6020526;23;20602;-65
2022/09/01 11:28:44;;;;;;;5.28;2.38;;;30.30;99.90;;;;;;6066784;23;20534;-62
2022/09/01 11:31:40;;;;;;;2.60;2.40;;;29.90;99.90;;;;;;6069209;23;20243;-62
2022/09/01 11:34:16;;;;;;;2.10;1.90;;;29.70;99.90;;;;;;6069176;23;20167;-62
2022/09/01 11:36:53;;;;;;;4.55;1.90;;;29.80;99.90;;;;;;6069192;23;20156;-62
2022/09/01 11:39:46;;;;;;;3.72;2.03;;;29.70;99.90;;;;;;6043610;23;20179;-61
2022/09/01 11:42:19;;;;;;;3.25;1.95;;;29.60;99.90;;;;;;6068820;23;20175;-61
2022/09/01 11:44:52;;;;;;;2.45;1.80;;;29.50;99.90;;;;;;6069200;23;20766;-62
2022/09/01 11:47:26;;;;;;;2.65;1.88;;;29.70;99.90;;;;;;6068904;23;20183;-62
2022/09/01 11:49:58;;;;;;;2.63;1.88;;;29.80;99.90;;;;;;6068989;23;20194;-62
2022/09/01 11:52:30;;;;;;;3.00;2.03;;;29.80;99.90;;;;;;6068835;23;20577;-61
2022/09/01 11:54:59;;;;;;;2.00;1.90;;;29.20;99.90;;;;;;6068940;23;20198;-61
2022/09/01 11:57:31;;;;;;;3.05;2.10;;;28.80;99.90;;;;;;6069109;23;20201;-61
2022/09/01 12:00:01;;;;;;;2.85;1.92;;;28.70;99.90;;;;;;6068752;23;20195;-62
2022/09/01 12:02:33;;;;;;;2.03;1.92;;;28.40;99.90;;;;;;6068727;23;20204;-61
2022/09/01 12:05:23;;;;;;;1.67;1.65;;;28.40;99.90;;;;;;6068685;23;20188;-61
2022/09/01 12:07:52;;;;;;;5.22;2.38;;;28.30;99.90;;;;;;6068700;23;20184;-61
2022/09/01 12:10:29;;;;;;;7.65;1.95;;;28.50;99.90;;;;;;6068508;23;20671;-61
2022/09/01 12:13:04;;;;;;;2.20;2.00;;;28.20;99.90;;;;;;6019817;23;20550;-61
2022/09/01 12:15:33;;;;;;;2.42;2.20;;;28.00;99.90;;;;;;6069045;23;20203;-61
2022/09/01 12:18:17;;;;;;;2.47;2.25;;;27.90;99.90;;;;;;6068781;23;20171;-61
2022/09/01 12:20:47;;;;;;;5.05;1.90;;;28.20;99.90;;;;;;6068662;23;20196;-61
2022/09/01 12:23:24;;;;;;;2.05;2.00;;;28.50;99.90;;;;;;6068540;23;20535;-61
2022/09/01 12:25:54;;;;;;;1.83;1.75;;;28.90;99.90;;;;;;6068370;23;20634;-61
2022/09/01 12:28:24;;;;;;;2.00;1.90;;;29.30;99.90;;;;;;6068498;23;20238;-61
2022/09/01 12:30:59;;;;;;;2.63;2.00;;;29.30;99.90;;;;;;6043374;23;20209;-61
2022/09/01 12:33:29;;;;;;;2.33;1.92;;;29.10;99.40;;;;;;6043025;23;20260;-62
2022/09/01 12:36:20;;;;;;;2.92;1.92;;;28.90;99.90;;;;;;6068563;23;20248;-61
2022/09/01 12:43:09;;;;;;;2.00;1.90;;;29.30;99.90;;;;;;6068488;23;20160;-61
2022/09/01 12:45:43;;;;;;;3.22;2.22;;;28.70;99.90;;;;;;6068505;23;20220;-61
2022/09/01 12:48:25;;;;;;;2.45;1.92;;;28.30;99.90;;;;;;6068598;23;20171;-61
2022/09/01 12:50:55;;;;;;;2.00;1.90;;;28.20;99.90;;;;;;6042763;23;20255;-61
2022/09/01 12:53:30;;;;;;;2.00;1.90;;;28.10;99.80;;;;;;6043219;23;20180;-61
2022/09/01 12:56:16;;;;;;;1.90;1.80;;;28.00;99.90;;;;;;6068482;23;20247;-62
2022/09/01 12:58:52;;;;;;;3.27;2.00;;;28.10;99.90;;;;;;6068519;23;20239;-61
2022/09/01 13:01:28;;;;;;;1.90;1.90;;;28.00;99.80;;;;;;6068378;23;20564;-61
2022/09/01 13:04:28;;;;;;;3.53;2.00;;;28.10;99.90;;;;;;6068298;23;20189;-61
2022/09/01 13:07:02;;;;;;;2.10;2.00;;;28.20;99.90;;;;;;5953510;24;20208;-61
2022/09/01 13:09:31;;;;;;;1.93;1.90;;;28.40;99.90;;;;;;6048922;23;20168;-62
2022/09/01 13:12:17;;;;;;;4.43;2.60;;;28.40;99.90;;;;;;6068385;23;20247;-62
2022/09/01 13:14:48;;;;;;;3.10;1.90;;;28.50;99.90;;;;;;6068348;23;20616;-62
2022/09/01 13:17:17;;;;;;;2.30;2.00;;;28.30;99.50;;;;;;6068251;23;20247;-62
2022/09/01 13:19:45;;;;;;;2.10;2.00;;;28.20;99.90;;;;;;6068259;23;20217;-60
2022/09/01 13:22:15;;;;;;;3.13;1.70;;;28.40;99.90;;;;;;6019308;23;20200;-60
2022/09/01 13:24:43;;;;;;;3.60;2.23;;;28.40;99.90;;;;;;6068584;23;20188;-59
2022/09/01 13:27:12;;;;;;;4.20;2.17;;;28.40;99.80;;;;;;6067910;23;20222;-62
2022/09/01 13:29:49;;;;;;;4.70;2.20;;;28.20;99.90;;;;;;6068852;23;20168;-63
2022/09/01 13:32:18;;;;;;;3.03;2.20;;;27.90;99.80;;;;;;6068336;23;20244;-62
2022/09/01 13:34:50;;;;;;;4.30;2.00;;;27.70;99.90;;;;;;6068506;23;20165;-62
2022/09/01 13:37:21;;;;;;;4.13;2.30;;;27.80;99.80;;;;;;6043137;23;20176;-62
2022/09/01 13:39:50;;;;;;;3.50;1.90;;;27.80;99.90;;;;;;6068336;23;20244;-62
2022/09/01 13:42:19;;;;;;;2.00;1.90;;;27.80;99.50;;;;;;6042472;23;20196;-62
2022/09/01 13:44:48;;;;;;;2.20;2.00;;;28.00;99.90;;;;;;6067625;23;20214;-62
2022/09/01 13:47:23;;;;;;;5.63;2.07;;;28.10;99.20;;;;;;6068092;23;20222;-63